Dexter Township, Michigan
Current Conditions -  °F | °C
As of 3:35 AM on Saturday 29 Nov 2014 (Local Time) from KOZW Reporting Station
Overcast Overcast  
Wind Chill: 19°   Ceiling: 5000
Heat Index: 28°   Visibility: 7mi
Dew Point: 25°   Wind: 10mph
Humidity: 86%   Direction: 160°SSE
Pressure: 29.98"   Gusts: NA
Location:  42.4646°N, 83.948°W
Report Text: KOZW 290835Z AUTO 16009KT 7SM SCT037 OVC050 M02/M04 A2998 RMK AO2 T10201040
Loading
Personal Weather Stations






























Interactive Weather Map New forecast layout! Learn more

10-Day Weather Forecast

Advertisements
Track Severe Weather on mobile